createdAt,value
2018-04-29T00:00:36.288Z,92.20
2018-04-29T00:03:03.749Z,92.30
2018-04-29T00:05:31.187Z,92.40
2018-04-29T00:07:58.639Z,92.50
2018-04-29T00:10:26.192Z,93.00
2018-04-29T00:12:53.721Z,92.70
2018-04-29T00:15:21.265Z,92.80
2018-04-29T00:17:49.310Z,92.70
2018-04-29T00:20:16.755Z,92.70
2018-04-29T00:22:44.209Z,92.70
2018-04-29T00:25:11.653Z,92.80
2018-04-29T00:27:39.096Z,93.10
2018-04-29T00:30:06.544Z,93.20
2018-04-29T00:32:34.275Z,93.40
2018-04-29T00:35:01.708Z,93.40
2018-04-29T00:37:29.552Z,93.50
2018-04-29T00:39:57.012Z,93.40
2018-04-29T00:42:24.462Z,93.40
2018-04-29T00:44:52.032Z,93.50
2018-04-29T00:47:19.468Z,93.40
2018-04-29T00:49:46.906Z,93.40
2018-04-29T00:52:14.371Z,93.50
2018-04-29T00:54:41.800Z,93.40
2018-04-29T00:57:09.253Z,93.60
2018-04-29T00:59:36.696Z,93.60
2018-04-29T01:02:04.153Z,93.60
2018-04-29T01:04:31.613Z,93.60
2018-04-29T01:06:59.061Z,93.50
2018-04-29T01:09:26.516Z,93.50
2018-04-29T01:11:53.971Z,93.50
2018-04-29T01:14:21.426Z,93.60
2018-04-29T01:16:48.889Z,93.60
2018-04-29T01:19:16.342Z,93.60
2018-04-29T01:21:43.807Z,93.60
2018-04-29T01:24:11.253Z,93.70
2018-04-29T01:26:38.785Z,94.00
2018-04-29T01:29:07.455Z,94.00
2018-04-29T01:31:34.884Z,94.00
2018-04-29T01:34:02.327Z,94.00
2018-04-29T01:36:29.875Z,94.00
2018-04-29T01:38:57.339Z,94.10
2018-04-29T01:41:25.587Z,94.10
2018-04-29T01:43:53.040Z,94.00
2018-04-29T01:46:20.514Z,94.00
2018-04-29T01:48:47.968Z,94.10
2018-04-29T01:51:15.446Z,94.20
2018-04-29T01:53:43.435Z,94.30
2018-04-29T01:56:10.867Z,94.20
2018-04-29T01:58:38.324Z,94.30
2018-04-29T02:01:05.755Z,94.40
2018-04-29T02:03:33.203Z,94.30
2018-04-29T02:06:00.648Z,94.40
2018-04-29T02:08:28.091Z,94.50
2018-04-29T02:10:56.407Z,94.50
2018-04-29T02:13:23.848Z,94.50
2018-04-29T02:15:51.305Z,94.50
2018-04-29T02:18:18.751Z,94.60
2018-04-29T02:20:46.194Z,94.60
2018-04-29T02:23:13.653Z,94.70
2018-04-29T02:25:41.150Z,94.90
2018-04-29T02:28:08.588Z,95.00
2018-04-29T02:30:36.294Z,95.00
2018-04-29T02:33:03.924Z,95.10
2018-04-29T02:35:31.376Z,95.10
2018-04-29T02:37:58.804Z,95.10
2018-04-29T02:40:26.245Z,95.10
2018-04-29T02:42:54.165Z,95.00
2018-04-29T02:45:21.651Z,94.90
2018-04-29T02:47:49.103Z,95.00
2018-04-29T02:50:16.539Z,94.90
2018-04-29T02:52:43.976Z,95.00
2018-04-29T02:55:11.423Z,95.10
2018-04-29T02:57:38.852Z,95.00
2018-04-29T03:00:06.304Z,95.00
2018-04-29T03:02:33.744Z,95.10
2018-04-29T03:05:01.179Z,95.10
2018-04-29T03:07:28.632Z,95.20
2018-04-29T03:09:56.080Z,95.30
2018-04-29T03:12:23.547Z,95.20
2018-04-29T03:14:50.985Z,95.10
2018-04-29T03:17:18.419Z,95.10
2018-04-29T03:19:46.124Z,95.10
2018-04-29T03:22:13.577Z,95.10
2018-04-29T03:24:41.025Z,95.20
2018-04-29T03:27:09.467Z,95.10
2018-04-29T03:29:37.683Z,95.10
2018-04-29T03:32:05.127Z,95.10
2018-04-29T03:34:32.569Z,95.10
2018-04-29T03:37:00.014Z,95.10
2018-04-29T03:39:27.519Z,95.10
2018-04-29T03:41:54.965Z,95.20
2018-04-29T03:44:22.416Z,95.20
2018-04-29T03:46:49.852Z,95.20
2018-04-29T03:49:17.309Z,95.30
2018-04-29T03:51:44.769Z,95.20
2018-04-29T03:54:12.204Z,95.80
2018-04-29T03:56:39.656Z,95.80
2018-04-29T03:59:19.019Z,95.90
2018-04-29T04:01:58.329Z,95.50
2018-04-29T04:04:25.758Z,95.50
2018-04-29T04:06:53.220Z,95.60
2018-04-29T04:09:21.423Z,96.30
2018-04-29T04:11:48.881Z,96.20
2018-04-29T04:14:16.317Z,96.40
2018-04-29T04:16:43.748Z,96.40
2018-04-29T04:19:11.191Z,95.90
2018-04-29T04:21:38.648Z,95.90
2018-04-29T04:24:06.123Z,95.80
2018-04-29T04:26:33.560Z,95.80
2018-04-29T04:29:00.996Z,95.60
2018-04-29T04:31:28.578Z,95.50
2018-04-29T04:33:56.013Z,95.50
2018-04-29T04:36:23.992Z,96.10
2018-04-29T04:38:51.431Z,96.20
2018-04-29T04:41:18.867Z,96.30
2018-04-29T04:43:47.088Z,96.50
2018-04-29T04:46:14.531Z,96.50
2018-04-29T04:48:41.970Z,96.50
2018-04-29T04:51:09.402Z,96.70
2018-04-29T04:53:36.849Z,97.00
2018-04-29T04:56:04.293Z,97.30
2018-04-29T04:58:31.728Z,96.80
2018-04-29T05:00:59.192Z,96.80
2018-04-29T05:03:26.624Z,96.70
2018-04-29T05:05:54.057Z,96.60
2018-04-29T05:08:21.500Z,96.40
2018-04-29T05:10:48.936Z,96.30
2018-04-29T05:13:16.393Z,96.50
2018-04-29T05:15:43.835Z,96.00
2018-04-29T05:18:11.280Z,95.80
2018-04-29T05:20:38.728Z,95.60
2018-04-29T05:23:06.166Z,95.50
2018-04-29T05:25:33.624Z,95.50
2018-04-29T05:28:01.063Z,95.50
2018-04-29T05:30:29.417Z,95.70
2018-04-29T05:32:56.867Z,96.00
2018-04-29T05:35:24.416Z,96.50
2018-04-29T05:37:51.804Z,96.80
2018-04-29T05:40:19.247Z,97.50
2018-04-29T05:42:46.702Z,98.30
2018-04-29T05:45:14.152Z,98.90
2018-04-29T05:47:41.720Z,99.90
2018-04-29T05:50:09.181Z,99.90
2018-04-29T05:52:36.624Z,99.90
2018-04-29T05:55:04.060Z,99.90
2018-04-29T05:57:31.520Z,99.90
2018-04-29T05:59:58.951Z,99.90
2018-04-29T06:02:26.408Z,99.90
2018-04-29T06:04:53.876Z,99.90
2018-04-29T06:07:21.407Z,99.90
2018-04-29T06:09:48.860Z,99.90
2018-04-29T06:12:16.313Z,99.90
2018-04-29T06:14:43.756Z,99.90
2018-04-29T06:17:11.211Z,99.90
2018-04-29T06:19:39.044Z,99.90
2018-04-29T06:22:06.521Z,99.90
2018-04-29T06:24:33.975Z,99.90
2018-04-29T06:27:01.428Z,99.90
2018-04-29T06:29:28.903Z,99.90
2018-04-29T06:31:56.375Z,99.90
2018-04-29T06:34:23.816Z,99.90
2018-04-29T06:36:51.268Z,99.90
2018-04-29T06:39:18.724Z,99.70
2018-04-29T06:41:46.281Z,99.00
2018-04-29T06:44:13.707Z,99.00
2018-04-29T06:46:41.513Z,98.30
2018-04-29T06:49:08.947Z,97.90
2018-04-29T06:51:36.483Z,97.60
2018-04-29T06:54:03.922Z,97.30
2018-04-29T06:56:31.461Z,97.20
2018-04-29T06:58:58.912Z,97.00
2018-04-29T07:01:26.367Z,97.20
2018-04-29T07:03:53.815Z,97.10
2018-04-29T07:06:21.256Z,97.30
2018-04-29T07:08:48.703Z,97.50
2018-04-29T07:11:16.161Z,97.80
2018-04-29T07:13:43.674Z,98.00
2018-04-29T07:16:11.057Z,98.10
2018-04-29T07:18:38.511Z,98.40
2018-04-29T07:21:05.931Z,98.90
2018-04-29T07:23:33.386Z,99.20
2018-04-29T07:26:00.871Z,99.40
2018-04-29T07:28:28.276Z,99.50
2018-04-29T07:30:55.713Z,99.60
2018-04-29T07:33:23.152Z,99.60
2018-04-29T07:35:50.748Z,99.70
2018-04-29T07:38:18.184Z,99.80
2018-04-29T07:40:45.631Z,99.90
2018-04-29T07:43:13.135Z,99.20
2018-04-29T07:45:40.567Z,98.40
2018-04-29T07:48:08.016Z,98.40
2018-04-29T07:50:36.211Z,98.60
2018-04-29T07:53:03.673Z,98.60
2018-04-29T07:55:31.106Z,99.00
2018-04-29T07:57:58.542Z,99.10
2018-04-29T08:00:25.992Z,99.00
2018-04-29T08:02:53.434Z,99.10
2018-04-29T08:05:20.871Z,99.10
2018-04-29T08:07:48.320Z,99.10
2018-04-29T08:10:15.768Z,99.10
2018-04-29T08:12:43.235Z,98.80
2018-04-29T08:15:10.876Z,98.70
2018-04-29T08:17:38.328Z,98.40
2018-04-29T08:20:05.793Z,98.60
2018-04-29T08:22:33.249Z,98.50
2018-04-29T08:25:00.694Z,98.90
2018-04-29T08:27:28.128Z,99.30
2018-04-29T08:29:55.571Z,99.40
2018-04-29T08:32:23.083Z,99.90
2018-04-29T08:34:50.550Z,99.90
2018-04-29T08:37:17.999Z,99.90
2018-04-29T08:39:45.471Z,99.90
2018-04-29T08:42:13.737Z,99.60
2018-04-29T08:44:41.180Z,99.60
2018-04-29T08:47:08.697Z,99.10
2018-04-29T08:49:36.152Z,98.60
2018-04-29T08:52:03.587Z,98.50
2018-04-29T08:54:31.024Z,98.10
2018-04-29T08:56:58.529Z,98.10
2018-04-29T08:59:25.969Z,97.70
2018-04-29T09:01:53.438Z,97.60
2018-04-29T09:04:20.886Z,98.10
2018-04-29T09:06:48.380Z,98.20
2018-04-29T09:09:15.846Z,98.30
2018-04-29T09:11:43.312Z,98.20
2018-04-29T09:14:10.760Z,98.40
2018-04-29T09:16:38.196Z,97.90
2018-04-29T09:19:05.660Z,98.40
2018-04-29T09:21:33.250Z,98.10
2018-04-29T09:24:00.696Z,97.80
2018-04-29T09:26:28.136Z,97.10
2018-04-29T09:28:55.572Z,96.50
2018-04-29T09:31:23.168Z,95.30
2018-04-29T09:33:50.613Z,93.80
2018-04-29T09:36:18.057Z,91.70
2018-04-29T09:38:46.255Z,86.70
2018-04-29T09:41:13.724Z,86.40
2018-04-29T09:43:41.204Z,81.80
2018-04-29T09:46:08.642Z,78.10
2018-04-29T09:48:36.112Z,77.50
2018-04-29T09:51:03.535Z,75.40
2018-04-29T09:53:31.360Z,72.40
2018-04-29T09:55:58.856Z,71.30
2018-04-29T09:58:26.376Z,67.30
2018-04-29T10:00:57.690Z,64.00
2018-04-29T10:03:25.078Z,66.70
2018-04-29T10:05:53.710Z,66.50
2018-04-29T10:08:21.165Z,64.30
2018-04-29T10:10:48.603Z,66.00
2018-04-29T10:13:16.051Z,62.70
2018-04-29T10:15:43.502Z,61.30
2018-04-29T10:18:11.033Z,63.20
2018-04-29T10:20:38.472Z,61.40
2018-04-29T10:23:05.899Z,62.40
2018-04-29T10:25:33.364Z,63.10
2018-04-29T10:28:00.805Z,63.10
2018-04-29T10:30:28.244Z,63.90
2018-04-29T10:32:55.729Z,66.20
2018-04-29T10:35:23.529Z,65.30
2018-04-29T10:37:50.985Z,64.30
2018-04-29T10:40:18.854Z,60.60
2018-04-29T10:42:46.295Z,60.40
2018-04-29T10:45:13.871Z,61.60
2018-04-29T10:47:41.315Z,61.80
2018-04-29T10:50:08.772Z,59.90
2018-04-29T10:52:36.281Z,59.90
2018-04-29T10:55:03.703Z,60.50
2018-04-29T10:57:31.144Z,60.40
2018-04-29T10:59:58.586Z,59.20
2018-04-29T11:02:26.046Z,57.90
2018-04-29T11:04:53.476Z,56.70
2018-04-29T11:07:20.909Z,55.50
2018-04-29T11:09:49.231Z,56.20
2018-04-29T11:12:16.670Z,56.60
2018-04-29T11:14:44.235Z,56.10
2018-04-29T11:17:11.676Z,55.00
2018-04-29T11:19:39.138Z,53.30
2018-04-29T11:22:06.679Z,51.50
2018-04-29T11:24:34.788Z,49.70
2018-04-29T11:27:02.272Z,49.60
2018-04-29T11:29:29.709Z,48.20
2018-04-29T11:31:57.159Z,48.20
2018-04-29T11:34:24.714Z,46.10
2018-04-29T11:36:52.151Z,46.50
2018-04-29T11:39:19.608Z,46.00
2018-04-29T11:41:47.072Z,46.80
2018-04-29T11:44:14.524Z,46.30
2018-04-29T11:46:41.963Z,45.30
2018-04-29T11:49:09.404Z,45.50
2018-04-29T11:51:36.889Z,45.60
2018-04-29T11:54:04.336Z,45.10
2018-04-29T11:56:31.789Z,45.70
2018-04-29T11:58:59.275Z,44.00
2018-04-29T12:01:26.747Z,44.00
2018-04-29T12:03:54.201Z,43.10
2018-04-29T12:06:21.644Z,42.90
2018-04-29T12:08:49.099Z,41.80
2018-04-29T12:11:16.542Z,40.50
2018-04-29T12:13:43.992Z,40.30
2018-04-29T12:16:11.435Z,39.60
2018-04-29T12:18:38.901Z,39.90
2018-04-29T12:21:06.453Z,39.00
2018-04-29T12:23:33.894Z,39.10
2018-04-29T12:26:01.334Z,38.40
2018-04-29T12:28:28.895Z,37.80
2018-04-29T12:30:56.335Z,38.00
2018-04-29T12:33:23.779Z,37.10
2018-04-29T12:35:51.222Z,36.60
2018-04-29T12:38:18.652Z,36.40
2018-04-29T12:40:46.095Z,36.50
2018-04-29T12:43:13.543Z,36.80
2018-04-29T12:45:40.968Z,35.80
2018-04-29T12:48:08.543Z,35.30
2018-04-29T12:50:36.757Z,34.00
2018-04-29T12:53:04.183Z,34.00
2018-04-29T12:55:31.733Z,35.10
2018-04-29T12:57:59.179Z,34.80
2018-04-29T13:00:26.634Z,35.90
2018-04-29T13:02:54.105Z,34.30
2018-04-29T13:05:21.547Z,35.30
2018-04-29T13:07:49.012Z,35.50
2018-04-29T13:10:16.467Z,35.20
2018-04-29T13:12:43.920Z,36.60
2018-04-29T13:15:11.379Z,36.90
2018-04-29T13:17:38.820Z,36.30
2018-04-29T13:20:06.272Z,35.70
2018-04-29T13:22:34.271Z,34.90
2018-04-29T13:25:01.710Z,34.00
2018-04-29T13:27:29.180Z,34.50
2018-04-29T13:29:56.615Z,34.70
2018-04-29T13:32:24.052Z,34.30
2018-04-29T13:34:51.580Z,34.60
2018-04-29T13:37:19.019Z,32.90
2018-04-29T13:39:47.252Z,33.30
2018-04-29T13:42:14.713Z,33.30
2018-04-29T13:44:42.932Z,35.10
2018-04-29T13:47:10.370Z,35.10
2018-04-29T13:49:37.807Z,35.80
2018-04-29T13:52:05.260Z,35.00
2018-04-29T13:54:32.705Z,34.80
2018-04-29T13:57:00.160Z,35.60
2018-04-29T13:59:27.605Z,35.50
2018-04-29T14:01:55.072Z,36.10
2018-04-29T14:04:22.484Z,35.80
2018-04-29T14:06:49.919Z,36.40
2018-04-29T14:09:17.381Z,35.90
2018-04-29T14:11:45.463Z,36.60
2018-04-29T14:14:12.923Z,36.80
2018-04-29T14:16:40.798Z,36.60
2018-04-29T14:19:08.231Z,35.40
2018-04-29T14:21:35.683Z,35.70
2018-04-29T14:24:03.128Z,36.90
2018-04-29T14:26:30.594Z,36.90
2018-04-29T14:28:58.044Z,37.50
2018-04-29T14:31:25.546Z,38.30
2018-04-29T14:33:53.042Z,39.10
2018-04-29T14:36:20.486Z,39.40
2018-04-29T14:38:48.485Z,39.70
2018-04-29T14:41:15.946Z,40.20
2018-04-29T14:43:43.392Z,41.10
2018-04-29T14:46:10.831Z,40.80
2018-04-29T14:48:39.040Z,40.40
2018-04-29T14:51:06.491Z,40.30
2018-04-29T14:53:33.952Z,40.70
2018-04-29T14:56:01.393Z,41.10
2018-04-29T14:58:28.856Z,41.10
2018-04-29T15:00:56.298Z,40.70
2018-04-29T15:03:23.739Z,41.00
2018-04-29T15:05:51.237Z,41.10
2018-04-29T15:08:18.656Z,41.10
2018-04-29T15:10:46.092Z,41.50
2018-04-29T15:13:13.553Z,43.40
2018-04-29T15:15:40.987Z,44.10
2018-04-29T15:18:08.457Z,44.60
2018-04-29T15:20:36.813Z,46.20
2018-04-29T15:23:04.240Z,47.30
2018-04-29T15:25:31.704Z,48.10
2018-04-29T15:27:59.988Z,48.30
2018-04-29T15:30:27.594Z,48.60
2018-04-29T15:32:55.025Z,49.20
2018-04-29T15:35:22.483Z,50.10
2018-04-29T15:37:49.919Z,50.50
2018-04-29T15:40:17.360Z,50.80
2018-04-29T15:42:44.802Z,51.60
2018-04-29T15:45:12.239Z,51.80
2018-04-29T15:47:39.739Z,52.20
2018-04-29T15:50:07.173Z,52.40
2018-04-29T15:52:34.615Z,52.70
2018-04-29T15:55:02.132Z,53.20
2018-04-29T15:57:29.600Z,53.60
2018-04-29T15:59:57.039Z,53.90
2018-04-29T16:02:24.475Z,54.30
2018-04-29T16:04:51.915Z,54.80
2018-04-29T16:07:19.435Z,55.00
2018-04-29T16:09:47.647Z,55.10
2018-04-29T16:12:15.860Z,55.90
2018-04-29T16:14:43.292Z,55.70
2018-04-29T16:17:10.932Z,56.10
2018-04-29T16:19:38.452Z,56.60
2018-04-29T16:22:05.903Z,56.60
2018-04-29T16:24:34.102Z,57.10
2018-04-29T16:27:01.543Z,57.00
2018-04-29T16:29:28.989Z,56.80
2018-04-29T16:31:56.436Z,57.20
2018-04-29T16:34:24.869Z,58.10
2018-04-29T16:36:52.332Z,58.00
2018-04-29T16:39:20.120Z,58.50
2018-04-29T16:41:47.589Z,58.60
2018-04-29T16:44:15.067Z,58.90
2018-04-29T16:46:42.584Z,59.10
2018-04-29T16:49:11.220Z,59.00
2018-04-29T16:51:38.669Z,59.30
2018-04-29T16:54:06.126Z,59.40
2018-04-29T16:56:33.567Z,59.40
2018-04-29T16:59:00.984Z,59.60
2018-04-29T17:01:28.552Z,59.90
2018-04-29T17:03:55.996Z,60.00
2018-04-29T17:06:24.262Z,59.90
2018-04-29T17:08:51.706Z,59.80
2018-04-29T17:11:19.152Z,59.50
2018-04-29T17:13:46.599Z,59.50
2018-04-29T17:16:14.162Z,59.50
2018-04-29T17:18:41.636Z,59.80
2018-04-29T17:21:09.063Z,60.00
2018-04-29T17:23:36.516Z,60.30
2018-04-29T17:26:03.965Z,60.20
2018-04-29T17:28:31.412Z,60.40
2018-04-29T17:30:58.900Z,60.70
2018-04-29T17:33:26.734Z,61.30
2018-04-29T17:35:54.214Z,61.60
2018-04-29T17:38:21.676Z,61.90
2018-04-29T17:40:49.308Z,62.20
2018-04-29T17:43:16.957Z,62.60
2018-04-29T17:45:44.535Z,62.90
2018-04-29T17:48:11.976Z,63.10
2018-04-29T17:50:39.457Z,63.20
2018-04-29T17:53:06.984Z,63.10
2018-04-29T17:55:35.212Z,63.50
2018-04-29T17:58:02.656Z,63.30
2018-04-29T18:00:30.083Z,63.70
2018-04-29T18:02:57.531Z,63.90
2018-04-29T18:05:24.959Z,63.80
2018-04-29T18:07:52.832Z,64.20
2018-04-29T18:10:20.704Z,64.30
2018-04-29T18:12:48.136Z,64.40
2018-04-29T18:15:15.572Z,64.60
2018-04-29T18:17:43.088Z,64.80
2018-04-29T18:20:10.568Z,64.90
2018-04-29T18:22:38.048Z,65.10
2018-04-29T18:25:05.471Z,65.30
2018-04-29T18:27:32.924Z,65.40
2018-04-29T18:30:00.413Z,65.70
2018-04-29T18:32:27.866Z,66.00
2018-04-29T18:34:55.311Z,66.20
2018-04-29T18:37:22.745Z,66.40
2018-04-29T18:39:50.196Z,66.60
2018-04-29T18:42:17.714Z,66.90
2018-04-29T18:44:45.189Z,67.20
2018-04-29T18:47:12.632Z,67.40
2018-04-29T18:49:40.067Z,67.80
2018-04-29T18:52:08.420Z,68.20
2018-04-29T18:54:35.868Z,68.40
2018-04-29T18:57:03.305Z,68.80
2018-04-29T18:59:30.755Z,69.00
2018-04-29T19:01:58.297Z,69.10
2018-04-29T19:04:25.731Z,69.20
2018-04-29T19:06:53.543Z,69.50
2018-04-29T19:09:20.976Z,69.70
2018-04-29T19:11:48.477Z,69.80
2018-04-29T19:14:16.044Z,70.10
2018-04-29T19:16:43.420Z,70.30
2018-04-29T19:19:10.856Z,70.40
2018-04-29T19:21:38.337Z,70.60
2018-04-29T19:24:05.831Z,70.70
2018-04-29T19:26:33.238Z,70.80
2018-04-29T19:29:00.690Z,71.00
2018-04-29T19:31:28.154Z,71.10
2018-04-29T19:33:55.756Z,71.20
2018-04-29T19:36:23.183Z,71.20
2018-04-29T19:38:51.060Z,71.50
2018-04-29T19:41:18.514Z,71.80
2018-04-29T19:43:45.962Z,72.00
2018-04-29T19:46:13.403Z,72.20
2018-04-29T19:48:40.845Z,72.50
2018-04-29T19:51:08.459Z,72.80
2018-04-29T19:53:35.898Z,73.00
2018-04-29T19:56:03.360Z,73.30
2018-04-29T19:58:30.793Z,73.50
2018-04-29T20:00:58.244Z,73.80
2018-04-29T20:03:25.679Z,74.00
2018-04-29T20:05:53.120Z,74.10
2018-04-29T20:08:20.580Z,74.30
2018-04-29T20:10:48.020Z,74.50
2018-04-29T20:13:15.471Z,74.70
2018-04-29T20:15:42.909Z,74.80
2018-04-29T20:18:11.232Z,75.30
2018-04-29T20:20:38.719Z,75.10
2018-04-29T20:23:06.191Z,75.40
2018-04-29T20:25:33.722Z,75.30
2018-04-29T20:28:01.171Z,75.40
2018-04-29T20:30:28.619Z,75.50
2018-04-29T20:32:56.061Z,75.60
2018-04-29T20:35:23.513Z,75.70
2018-04-29T20:37:50.980Z,75.90
2018-04-29T20:40:18.825Z,75.90
2018-04-29T20:42:46.284Z,75.90
2018-04-29T20:45:13.762Z,75.90
2018-04-29T20:47:41.207Z,76.00
2018-04-29T20:50:08.755Z,76.00
2018-04-29T20:52:36.192Z,76.10
2018-04-29T20:55:03.632Z,76.10
2018-04-29T20:57:31.082Z,76.30
2018-04-29T20:59:58.539Z,76.40
2018-04-29T21:02:25.991Z,76.70
2018-04-29T21:04:53.860Z,76.70
2018-04-29T21:07:21.276Z,76.80
2018-04-29T21:09:48.734Z,76.80
2018-04-29T21:12:16.308Z,76.90
2018-04-29T21:14:43.768Z,76.90
2018-04-29T21:17:11.573Z,77.00
2018-04-29T21:19:38.996Z,77.20
2018-04-29T21:22:06.451Z,77.20
2018-04-29T21:24:33.988Z,77.20
2018-04-29T21:27:01.820Z,77.20
2018-04-29T21:29:29.804Z,77.30
2018-04-29T21:31:57.648Z,77.30
2018-04-29T21:34:25.072Z,77.50
2018-04-29T21:36:52.512Z,77.60
2018-04-29T21:39:19.967Z,77.80
2018-04-29T21:41:47.404Z,78.00
2018-04-29T21:44:14.856Z,77.90
2018-04-29T21:46:42.340Z,79.00
2018-04-29T21:49:09.788Z,78.30
2018-04-29T21:51:37.268Z,78.50
2018-04-29T21:54:04.699Z,78.60
2018-04-29T21:56:32.220Z,78.80
2018-04-29T21:58:59.655Z,78.90
2018-04-29T22:01:27.116Z,78.90
2018-04-29T22:03:54.551Z,79.10
2018-04-29T22:06:22.036Z,79.30
2018-04-29T22:08:49.486Z,79.30
2018-04-29T22:11:16.920Z,79.50
2018-04-29T22:13:44.356Z,79.50
2018-04-29T22:16:11.881Z,79.50
2018-04-29T22:18:39.323Z,79.70
2018-04-29T22:21:06.776Z,79.50
2018-04-29T22:23:34.238Z,79.40
2018-04-29T22:26:01.715Z,79.40
2018-04-29T22:28:29.195Z,79.30
2018-04-29T22:30:56.631Z,79.80
2018-04-29T22:33:24.072Z,78.90
2018-04-29T22:35:51.547Z,78.60
2018-04-29T22:38:18.990Z,78.50
2018-04-29T22:40:46.419Z,78.40
2018-04-29T22:43:13.844Z,78.40
2018-04-29T22:45:41.304Z,78.50
2018-04-29T22:48:08.736Z,78.60
2018-04-29T22:50:36.177Z,78.70
2018-04-29T22:53:03.806Z,79.90
2018-04-29T22:55:31.258Z,79.20
2018-04-29T22:57:58.718Z,79.40
2018-04-29T23:00:26.187Z,79.40
2018-04-29T23:02:53.640Z,79.50
2018-04-29T23:05:21.082Z,79.70
2018-04-29T23:07:48.518Z,80.00
2018-04-29T23:10:16.027Z,80.30
2018-04-29T23:12:43.501Z,80.80
2018-04-29T23:15:10.952Z,81.70
2018-04-29T23:17:38.412Z,81.70
2018-04-29T23:20:05.849Z,81.80
2018-04-29T23:22:33.365Z,82.60
2018-04-29T23:25:00.836Z,84.40
2018-04-29T23:27:28.663Z,86.30
2018-04-29T23:29:56.100Z,86.40
2018-04-29T23:32:23.626Z,86.60
2018-04-29T23:34:51.063Z,86.40
2018-04-29T23:37:18.499Z,86.00
2018-04-29T23:39:46.073Z,85.50
2018-04-29T23:42:13.513Z,84.80
2018-04-29T23:44:41.324Z,83.40
2018-04-29T23:47:08.849Z,82.50
2018-04-29T23:49:36.272Z,82.80
2018-04-29T23:52:04.114Z,83.40
2018-04-29T23:54:31.554Z,84.40
2018-04-29T23:56:59.029Z,85.20
2018-04-29T23:59:26.474Z,86.20
